createdAt,value
2023-04-20T00:00:12.831Z,9.73
2023-04-20T00:02:42.281Z,9.73
2023-04-20T00:08:18.244Z,9.72
2023-04-20T00:10:46.541Z,9.70
2023-04-20T00:13:14.895Z,9.71
2023-04-20T00:15:43.012Z,9.71
2023-04-20T00:18:11.460Z,9.70
2023-04-20T00:20:39.712Z,9.70
2023-04-20T00:23:07.872Z,9.69
2023-04-20T00:25:36.566Z,9.69
2023-04-20T00:28:05.227Z,9.69
2023-04-20T00:30:35.029Z,9.69
2023-04-20T00:33:03.404Z,9.67
2023-04-20T00:35:32.519Z,9.67
2023-04-20T00:38:00.902Z,9.69
2023-04-20T00:40:29.274Z,9.69
2023-04-20T00:42:57.919Z,9.69
2023-04-20T00:45:26.355Z,9.69
2023-04-20T00:47:54.550Z,9.68
2023-04-20T00:50:22.818Z,9.69
2023-04-20T00:52:51.092Z,9.68
2023-04-20T00:55:19.849Z,9.68
2023-04-20T00:57:48.869Z,9.68
2023-04-20T01:00:17.151Z,9.68
2023-04-20T01:02:46.064Z,9.67
2023-04-20T01:05:14.407Z,9.65
2023-04-20T01:07:42.604Z,9.64
2023-04-20T01:10:10.905Z,9.63
2023-04-20T01:12:41.239Z,9.62
2023-04-20T01:15:09.721Z,9.60
2023-04-20T01:17:41.199Z,9.58
2023-04-20T01:20:12.709Z,9.56
2023-04-20T01:22:47.681Z,9.55
2023-04-20T01:25:16.378Z,9.53
2023-04-20T01:27:44.589Z,9.52
2023-04-20T01:30:12.963Z,9.52
2023-04-20T01:32:41.498Z,9.51
2023-04-20T01:35:10.577Z,9.50
2023-04-20T01:37:39.973Z,9.50
2023-04-20T01:40:11.962Z,9.49
2023-04-20T01:42:40.554Z,9.49
2023-04-20T01:45:09.005Z,9.47
2023-04-20T01:47:37.559Z,9.45
2023-04-20T01:50:08.208Z,9.46
2023-04-20T01:52:36.483Z,9.46
2023-04-20T01:55:05.036Z,9.46
2023-04-20T01:57:33.393Z,9.44
2023-04-20T02:00:01.623Z,9.44
2023-04-20T02:02:30.470Z,9.43
2023-04-20T02:04:58.639Z,9.42
2023-04-20T02:07:26.942Z,9.41
2023-04-20T02:09:55.296Z,9.42
2023-04-20T02:12:23.541Z,9.42
2023-04-20T02:14:52.092Z,9.42
2023-04-20T02:17:22.877Z,9.41
2023-04-20T02:19:51.012Z,9.40
2023-04-20T02:22:19.104Z,9.39
2023-04-20T02:24:47.192Z,9.39
2023-04-20T02:27:15.815Z,9.38
2023-04-20T02:29:44.204Z,9.37
2023-04-20T02:32:15.306Z,9.37
2023-04-20T02:34:43.432Z,9.38
2023-04-20T02:37:11.556Z,9.37
2023-04-20T02:39:39.792Z,9.36
2023-04-20T02:42:08.031Z,9.36
2023-04-20T02:44:36.700Z,9.35
2023-04-20T02:47:04.972Z,9.34
2023-04-20T02:49:33.794Z,9.33
2023-04-20T02:52:02.029Z,9.32
2023-04-20T02:54:30.632Z,9.32
2023-04-20T02:56:58.986Z,9.31
2023-04-20T02:59:27.936Z,9.31
2023-04-20T03:02:02.032Z,9.30
2023-04-20T03:04:31.300Z,9.29
2023-04-20T03:07:16.696Z,9.29
2023-04-20T03:09:45.032Z,9.29
2023-04-20T03:12:26.316Z,9.29
2023-04-20T03:15:23.586Z,9.29
2023-04-20T03:17:59.172Z,9.30
2023-04-20T03:20:27.709Z,9.29
2023-04-20T03:22:56.126Z,9.30
2023-04-20T03:25:25.877Z,9.30
2023-04-20T03:28:00.972Z,9.30
2023-04-20T03:30:29.978Z,9.30
2023-04-20T03:33:17.110Z,9.31
2023-04-20T03:35:45.402Z,9.32
2023-04-20T03:38:13.663Z,9.34
2023-04-20T03:40:41.774Z,9.36
2023-04-20T03:43:12.277Z,9.37
2023-04-20T03:45:40.528Z,9.40
2023-04-20T03:48:09.069Z,9.42
2023-04-20T03:50:38.206Z,9.45
2023-04-20T03:53:06.417Z,9.47
2023-04-20T03:55:34.711Z,9.50
2023-04-20T03:58:07.200Z,9.53
2023-04-20T04:00:44.544Z,9.56
2023-04-20T04:03:13.360Z,9.57
2023-04-20T04:05:41.994Z,9.58
2023-04-20T04:08:10.300Z,9.59
2023-04-20T04:10:38.864Z,9.59
2023-04-20T04:13:07.063Z,9.58
2023-04-20T04:15:35.332Z,9.57
2023-04-20T04:18:06.711Z,9.57
2023-04-20T04:20:36.548Z,9.54
2023-04-20T04:23:05.466Z,9.52
2023-04-20T04:25:54.267Z,9.48
2023-04-20T04:28:24.893Z,9.42
2023-04-20T04:31:28.794Z,9.37
2023-04-20T04:34:02.356Z,9.32
2023-04-20T04:36:36.912Z,9.27
2023-04-20T04:39:06.224Z,9.22
2023-04-20T04:41:34.483Z,9.18
2023-04-20T04:44:16.859Z,9.14
2023-04-20T04:46:45.849Z,9.12
2023-04-20T04:49:14.354Z,9.10
2023-04-20T04:51:42.539Z,9.08
2023-04-20T04:54:10.861Z,9.05
2023-04-20T04:56:38.988Z,9.01
2023-04-20T04:59:07.228Z,8.97
2023-04-20T05:01:35.411Z,8.92
2023-04-20T05:04:03.825Z,8.88
2023-04-20T05:06:32.846Z,8.82
2023-04-20T05:09:01.029Z,8.78
2023-04-20T05:11:29.497Z,8.74
2023-04-20T05:13:57.802Z,8.73
2023-04-20T05:16:26.005Z,8.74
2023-04-20T05:18:54.247Z,8.71
2023-04-20T05:21:22.986Z,8.66
2023-04-20T05:23:51.080Z,8.64
2023-04-20T05:26:19.173Z,8.61
2023-04-20T05:28:47.606Z,8.59
2023-04-20T05:31:16.028Z,8.56
2023-04-20T05:33:44.114Z,8.53
2023-04-20T05:36:12.252Z,8.50
2023-04-20T05:38:40.536Z,8.47
2023-04-20T05:41:08.673Z,8.42
2023-04-20T05:43:36.963Z,8.37
2023-04-20T05:46:05.612Z,8.35
2023-04-20T05:48:34.133Z,8.33
2023-04-20T05:51:02.473Z,8.29
2023-04-20T05:53:31.384Z,8.26
2023-04-20T05:55:59.658Z,8.24
2023-04-20T05:58:27.955Z,8.23
2023-04-20T06:00:57.029Z,8.22
2023-04-20T06:03:26.029Z,8.22
2023-04-20T06:05:54.466Z,8.22
2023-04-20T06:08:22.550Z,8.23
2023-04-20T06:10:55.795Z,8.24
2023-04-20T06:13:24.409Z,8.26
2023-04-20T06:15:55.422Z,8.26
2023-04-20T06:18:24.233Z,8.27
2023-04-20T06:20:52.406Z,8.26
2023-04-20T06:23:21.413Z,8.25
2023-04-20T06:25:49.588Z,8.28
2023-04-20T06:28:17.769Z,8.30
2023-04-20T06:30:46.042Z,8.34
2023-04-20T06:33:17.335Z,8.39
2023-04-20T06:35:45.780Z,8.45
2023-04-20T06:38:14.012Z,8.51
2023-04-20T06:40:42.276Z,8.59
2023-04-20T06:43:10.690Z,8.68
2023-04-20T06:45:40.320Z,8.76
2023-04-20T06:48:20.233Z,8.84
2023-04-20T06:50:56.715Z,8.89
2023-04-20T06:53:24.936Z,8.93
2023-04-20T06:55:56.188Z,8.99
2023-04-20T06:58:24.454Z,9.05
2023-04-20T07:00:52.874Z,9.11
2023-04-20T07:03:21.345Z,9.16
2023-04-20T07:05:49.848Z,9.22
2023-04-20T07:08:18.098Z,9.26
2023-04-20T07:10:46.406Z,9.28
2023-04-20T07:13:14.737Z,9.30
2023-04-20T07:15:45.281Z,9.32
2023-04-20T07:18:13.434Z,9.36
2023-04-20T07:20:41.807Z,9.40
2023-04-20T07:23:09.994Z,9.43
2023-04-20T07:25:38.348Z,9.44
2023-04-20T07:28:06.602Z,9.47
2023-04-20T07:30:34.717Z,9.48
2023-04-20T07:33:03.160Z,9.50
2023-04-20T07:35:31.364Z,9.50
2023-04-20T07:37:59.596Z,9.49
2023-04-20T07:40:27.834Z,9.48
2023-04-20T07:42:56.018Z,9.45
2023-04-20T07:45:24.428Z,9.45
2023-04-20T07:47:54.304Z,9.44
2023-04-20T07:50:22.490Z,9.44
2023-04-20T07:52:50.831Z,9.47
2023-04-20T07:55:19.079Z,9.49
2023-04-20T07:57:47.380Z,9.51
2023-04-20T08:00:16.146Z,9.50
2023-04-20T08:02:46.981Z,9.52
2023-04-20T08:05:15.538Z,9.54
2023-04-20T08:07:44.222Z,9.53
2023-04-20T08:10:12.953Z,9.51
2023-04-20T08:12:42.216Z,9.47
2023-04-20T08:15:11.072Z,9.40
2023-04-20T08:17:39.566Z,9.34
2023-04-20T08:20:08.349Z,9.27
2023-04-20T08:22:37.934Z,9.20
2023-04-20T08:25:06.194Z,9.12
2023-04-20T08:27:35.176Z,9.04
2023-04-20T08:30:04.548Z,8.95
2023-04-20T08:32:33.446Z,8.85
2023-04-20T08:35:01.650Z,8.72
2023-04-20T08:37:32.522Z,8.59
2023-04-20T08:40:01.202Z,8.45
2023-04-20T08:42:29.829Z,8.33
2023-04-20T08:44:58.736Z,8.26
2023-04-20T08:47:28.126Z,8.20
2023-04-20T08:49:56.497Z,8.14
2023-04-20T08:52:24.845Z,8.08
2023-04-20T08:54:57.267Z,8.03
2023-04-20T08:57:26.382Z,7.99
2023-04-20T08:59:54.759Z,7.95
2023-04-20T09:02:23.943Z,7.92
2023-04-20T09:05:02.848Z,7.87
2023-04-20T09:07:32.151Z,7.84
2023-04-20T09:10:00.820Z,7.83
2023-04-20T09:12:29.328Z,7.81
2023-04-20T09:14:57.640Z,7.82
2023-04-20T09:17:36.310Z,7.83
2023-04-20T09:20:08.688Z,7.85
2023-04-20T09:22:37.585Z,7.87
2023-04-20T09:25:15.344Z,7.89
2023-04-20T09:27:43.755Z,7.90
2023-04-20T09:30:12.372Z,7.92
2023-04-20T09:32:40.791Z,7.95
2023-04-20T09:35:09.447Z,8.00
2023-04-20T09:37:47.513Z,8.05
2023-04-20T09:40:16.711Z,8.08
2023-04-20T09:42:44.980Z,8.11
2023-04-20T09:45:14.807Z,8.14
2023-04-20T09:47:44.501Z,8.20
2023-04-20T09:50:24.794Z,8.25
2023-04-20T09:52:57.732Z,8.31
2023-04-20T09:55:26.781Z,8.38
2023-04-20T09:57:54.927Z,8.47
2023-04-20T10:00:23.477Z,8.54
2023-04-20T10:02:52.166Z,8.62
2023-04-20T10:05:20.753Z,8.71
2023-04-20T10:07:59.553Z,8.79
2023-04-20T10:10:27.769Z,8.88
2023-04-20T10:12:58.686Z,8.97
2023-04-20T10:15:39.911Z,9.02
2023-04-20T10:18:25.069Z,9.05
2023-04-20T10:21:05.460Z,9.06
2023-04-20T10:23:34.182Z,9.05
2023-04-20T10:26:03.937Z,9.03
2023-04-20T10:28:40.780Z,9.02
2023-04-20T10:31:13.065Z,9.02
2023-04-20T10:33:55.062Z,9.02
2023-04-20T10:36:37.256Z,9.05
2023-04-20T10:39:19.848Z,9.06
2023-04-20T10:41:55.792Z,9.08
2023-04-20T10:44:26.615Z,9.09
2023-04-20T10:46:55.297Z,9.10
2023-04-20T10:49:30.297Z,9.12
2023-04-20T10:51:59.157Z,9.14
2023-04-20T10:54:29.008Z,9.15
2023-04-20T10:56:57.304Z,9.18
2023-04-20T10:59:25.611Z,9.17
2023-04-20T11:01:55.596Z,9.14
2023-04-20T11:04:33.596Z,9.09
2023-04-20T11:07:09.104Z,9.04
2023-04-20T11:09:38.742Z,8.98
2023-04-20T11:12:12.252Z,8.94
2023-04-20T11:15:07.314Z,8.89
2023-04-20T11:17:36.723Z,8.85
2023-04-20T11:20:09.231Z,8.84
2023-04-20T11:22:41.374Z,8.85
2023-04-20T11:25:10.933Z,8.87
2023-04-20T11:27:39.989Z,8.87
2023-04-20T11:30:10.125Z,8.85
2023-04-20T11:32:39.351Z,8.86
2023-04-20T11:35:09.579Z,8.87
2023-04-20T11:37:51.579Z,8.88
2023-04-20T11:40:19.967Z,8.89
2023-04-20T11:42:48.147Z,8.90
2023-04-20T11:45:16.606Z,8.93
2023-04-20T11:47:45.953Z,8.95
2023-04-20T11:50:14.610Z,8.97
2023-04-20T11:52:43.036Z,8.98
2023-04-20T11:55:11.655Z,9.00
2023-04-20T11:57:39.771Z,9.02
2023-04-20T12:00:08.946Z,9.04
2023-04-20T12:02:43.317Z,9.07
2023-04-20T12:05:12.146Z,9.10
2023-04-20T12:07:40.557Z,9.12
2023-04-20T12:10:09.127Z,9.14
2023-04-20T12:12:38.960Z,9.17
2023-04-20T12:15:07.905Z,9.17
2023-04-20T12:17:36.246Z,9.19
2023-04-20T12:20:09.027Z,9.20
2023-04-20T12:22:37.575Z,9.21
2023-04-20T12:25:06.750Z,9.23
2023-04-20T12:27:36.103Z,9.27
2023-04-20T12:30:04.521Z,9.29
2023-04-20T12:32:33.595Z,9.31
2023-04-20T12:35:01.899Z,9.32
2023-04-20T12:37:31.015Z,9.34
2023-04-20T12:39:59.333Z,9.36
2023-04-20T12:42:27.662Z,9.38
2023-04-20T12:44:56.391Z,9.44
2023-04-20T12:47:24.535Z,9.50
2023-04-20T12:49:52.788Z,9.54
2023-04-20T12:52:21.268Z,9.57
2023-04-20T12:54:50.048Z,9.61
2023-04-20T12:57:18.296Z,9.63
2023-04-20T12:59:48.828Z,9.65
2023-04-20T13:02:17.847Z,9.66
2023-04-20T13:04:46.960Z,9.66
2023-04-20T13:07:15.597Z,9.67
2023-04-20T13:09:44.017Z,9.69
2023-04-20T13:12:13.093Z,9.71
2023-04-20T13:14:41.145Z,9.75
2023-04-20T13:17:09.344Z,9.77
2023-04-20T13:19:37.548Z,9.78
2023-04-20T13:22:05.665Z,9.75
2023-04-20T13:24:34.046Z,9.69
2023-04-20T13:27:02.276Z,9.61
2023-04-20T13:29:30.711Z,9.54
2023-04-20T13:31:58.891Z,9.47
2023-04-20T13:34:27.070Z,9.43
2023-04-20T13:36:55.376Z,9.43
2023-04-20T13:39:24.263Z,9.51
2023-04-20T13:41:52.675Z,9.57
2023-04-20T13:44:21.416Z,9.64
2023-04-20T13:46:50.043Z,9.71
2023-04-20T13:49:18.326Z,9.75
2023-04-20T13:51:46.492Z,9.82
2023-04-20T13:54:14.714Z,9.89
2023-04-20T13:56:42.856Z,9.95
2023-04-20T13:59:11.242Z,10.00
2023-04-20T14:01:39.465Z,10.01
2023-04-20T14:04:09.374Z,10.03
2023-04-20T14:06:38.270Z,10.05
2023-04-20T14:09:06.456Z,10.05
2023-04-20T14:11:34.660Z,10.04
2023-04-20T14:14:02.941Z,10.04
2023-04-20T14:16:31.468Z,10.05
2023-04-20T14:18:59.579Z,10.07
2023-04-20T14:21:28.023Z,10.10
2023-04-20T14:23:56.350Z,10.13
2023-04-20T14:26:24.649Z,10.19
2023-04-20T14:28:53.310Z,10.26
2023-04-20T14:31:21.494Z,10.34
2023-04-20T14:33:49.592Z,10.43
2023-04-20T14:36:17.943Z,10.51
2023-04-20T14:38:46.351Z,10.57
2023-04-20T14:41:16.240Z,10.63
2023-04-20T14:43:44.515Z,10.67
2023-04-20T14:46:13.125Z,10.70
2023-04-20T14:48:41.760Z,10.74
2023-04-20T14:51:09.907Z,10.76
2023-04-20T14:53:37.991Z,10.78
2023-04-20T14:56:06.317Z,10.80
2023-04-20T14:58:36.134Z,10.82
2023-04-20T15:01:04.845Z,10.84
2023-04-20T15:03:33.773Z,10.87
2023-04-20T15:06:02.293Z,10.88
2023-04-20T15:08:30.858Z,10.90
2023-04-20T15:10:59.028Z,10.92
2023-04-20T15:13:27.497Z,10.94
2023-04-20T15:15:56.019Z,10.95
2023-04-20T15:18:24.277Z,10.95
2023-04-20T15:20:52.759Z,10.96
2023-04-20T15:23:21.415Z,10.97
2023-04-20T15:25:49.704Z,10.98
2023-04-20T15:28:18.518Z,11.00
2023-04-20T15:30:47.168Z,11.00
2023-04-20T15:33:15.436Z,11.02
2023-04-20T15:35:43.760Z,11.03
2023-04-20T15:38:11.994Z,11.05
2023-04-20T15:40:40.260Z,11.06
2023-04-20T15:43:08.557Z,11.06
2023-04-20T15:45:36.784Z,11.06
2023-04-20T15:48:05.383Z,11.06
2023-04-20T15:50:33.817Z,11.07
2023-04-20T15:53:02.284Z,11.08
2023-04-20T15:55:34.594Z,11.08
2023-04-20T15:58:02.899Z,11.08
2023-04-20T16:00:31.560Z,11.08
2023-04-20T16:03:01.722Z,11.09
2023-04-20T16:05:30.173Z,11.09
2023-04-20T16:07:58.659Z,11.11
2023-04-20T16:10:27.604Z,11.13
2023-04-20T16:12:56.382Z,11.14
2023-04-20T16:15:24.855Z,11.14
2023-04-20T16:17:53.760Z,11.13
2023-04-20T16:20:22.264Z,11.12
2023-04-20T16:22:50.730Z,11.12
2023-04-20T16:25:23.185Z,11.10
2023-04-20T16:27:51.836Z,11.09
2023-04-20T16:30:20.089Z,11.08
2023-04-20T16:32:48.379Z,11.08
2023-04-20T16:35:16.609Z,11.09
2023-04-20T16:37:45.465Z,11.10
2023-04-20T16:40:13.670Z,11.11
2023-04-20T16:42:42.007Z,11.12
2023-04-20T16:45:10.239Z,11.12
2023-04-20T16:47:39.392Z,11.12
2023-04-20T16:50:07.957Z,11.12
2023-04-20T16:52:36.321Z,11.13
2023-04-20T16:55:04.921Z,11.14
2023-04-20T16:57:33.119Z,11.16
2023-04-20T17:00:01.252Z,11.19
2023-04-20T17:02:33.198Z,11.20
2023-04-20T17:05:01.753Z,11.20
2023-04-20T17:07:30.173Z,11.20
2023-04-20T17:09:58.318Z,11.20
2023-04-20T17:12:26.484Z,11.21
2023-04-20T17:14:55.463Z,11.21
2023-04-20T17:17:23.718Z,11.23
2023-04-20T17:19:51.859Z,11.25
2023-04-20T17:22:20.167Z,11.27
2023-04-20T17:24:48.488Z,11.29
2023-04-20T17:27:16.674Z,11.29
2023-04-20T17:29:45.271Z,11.29
2023-04-20T17:32:13.651Z,11.28
2023-04-20T17:34:44.937Z,11.29
2023-04-20T17:37:13.404Z,11.30
2023-04-20T17:39:41.537Z,11.31
2023-04-20T17:42:10.903Z,11.31
2023-04-20T17:44:39.906Z,11.30
2023-04-20T17:47:09.604Z,11.29
2023-04-20T17:49:37.750Z,11.28
2023-04-20T17:52:06.333Z,11.27
2023-04-20T17:54:34.624Z,11.27
2023-04-20T17:57:02.804Z,11.28
2023-04-20T17:59:31.343Z,11.28
2023-04-20T18:01:59.599Z,11.27
2023-04-20T18:04:28.339Z,11.26
2023-04-20T18:06:56.649Z,11.25
2023-04-20T18:09:24.861Z,11.23
2023-04-20T18:11:53.328Z,11.22
2023-04-20T18:14:21.511Z,11.20
2023-04-20T18:16:54.921Z,11.17
2023-04-20T18:19:23.233Z,11.15
2023-04-20T18:21:51.436Z,11.13
2023-04-20T18:24:19.698Z,11.11
2023-04-20T18:26:47.990Z,11.10
2023-04-20T18:29:16.253Z,11.09
2023-04-20T18:31:50.045Z,11.11
2023-04-20T18:34:18.406Z,11.10
2023-04-20T18:36:46.681Z,11.08
2023-04-20T18:39:15.239Z,11.04
2023-04-20T18:41:43.339Z,10.94
2023-04-20T18:44:11.457Z,10.79
2023-04-20T18:46:39.672Z,10.67
2023-04-20T18:49:07.988Z,10.58
2023-04-20T18:51:36.282Z,10.50
2023-04-20T18:54:04.604Z,10.42
2023-04-20T18:56:33.925Z,10.33
2023-04-20T18:59:03.334Z,10.26
2023-04-20T19:01:33.381Z,10.19
2023-04-20T19:04:01.846Z,10.12
2023-04-20T19:06:31.317Z,10.06
2023-04-20T19:08:59.542Z,9.98
2023-04-20T19:11:29.066Z,9.94
2023-04-20T19:13:57.370Z,9.87
2023-04-20T19:16:25.779Z,9.80
2023-04-20T19:18:54.043Z,9.72
2023-04-20T19:21:22.257Z,9.67
2023-04-20T19:23:50.578Z,9.62
2023-04-20T19:26:18.893Z,9.57
2023-04-20T19:28:47.140Z,9.51
2023-04-20T19:31:16.131Z,9.45
2023-04-20T19:33:44.866Z,9.41
2023-04-20T19:36:13.373Z,9.38
2023-04-20T19:38:41.767Z,9.34
2023-04-20T19:41:10.170Z,9.30
2023-04-20T19:43:38.350Z,9.26
2023-04-20T19:46:09.759Z,9.22
2023-04-20T19:48:38.131Z,9.15
2023-04-20T19:51:06.760Z,9.07
2023-04-20T19:53:34.978Z,9.01
2023-04-20T19:56:06.195Z,8.94
2023-04-20T19:58:34.648Z,8.90
2023-04-20T20:01:03.344Z,8.87
2023-04-20T20:03:32.843Z,8.83
2023-04-20T20:06:01.438Z,8.79
2023-04-20T20:08:30.323Z,8.77
2023-04-20T20:10:58.420Z,8.75
2023-04-20T20:13:26.870Z,8.72
2023-04-20T20:15:55.044Z,8.70
2023-04-20T20:18:24.436Z,8.68
2023-04-20T20:20:52.614Z,8.67
2023-04-20T20:23:21.628Z,8.67
2023-04-20T20:25:49.783Z,8.68
2023-04-20T20:28:18.855Z,8.66
2023-04-20T20:30:47.078Z,8.64
2023-04-20T20:33:15.433Z,8.63
2023-04-20T20:35:43.583Z,8.62
2023-04-20T20:38:11.744Z,8.61
2023-04-20T20:40:40.164Z,8.59
2023-04-20T20:43:08.738Z,8.57
2023-04-20T20:45:37.367Z,8.55
2023-04-20T20:48:05.733Z,8.53
2023-04-20T20:50:34.082Z,8.50
2023-04-20T20:53:02.279Z,8.48
2023-04-20T20:55:30.484Z,8.46
2023-04-20T20:57:58.595Z,8.44
2023-04-20T21:00:27.152Z,8.43
2023-04-20T21:02:57.261Z,8.41
2023-04-20T21:05:25.588Z,8.40
2023-04-20T21:07:53.772Z,8.40
2023-04-20T21:10:21.928Z,8.39
2023-04-20T21:12:50.419Z,8.39
2023-04-20T21:15:18.699Z,8.39
2023-04-20T21:17:46.963Z,8.39
2023-04-20T21:20:15.372Z,8.39
2023-04-20T21:22:43.578Z,8.38
2023-04-20T21:25:11.796Z,8.38
2023-04-20T21:27:40.302Z,8.39
2023-04-20T21:30:09.016Z,8.41
2023-04-20T21:32:37.402Z,8.42
2023-04-20T21:35:06.255Z,8.41
2023-04-20T21:37:34.454Z,8.43
2023-04-20T21:40:02.592Z,8.42
2023-04-20T21:42:31.245Z,8.41
2023-04-20T21:44:59.689Z,8.40
2023-04-20T21:47:27.850Z,8.37
2023-04-20T21:49:56.065Z,8.35
2023-04-20T21:52:24.979Z,8.33
2023-04-20T21:54:53.216Z,8.33
2023-04-20T21:57:21.423Z,8.30
2023-04-20T21:59:49.517Z,8.28
2023-04-20T22:02:17.712Z,8.26
2023-04-20T22:04:46.352Z,8.23
2023-04-20T22:07:17.709Z,8.20
2023-04-20T22:09:45.831Z,8.16
2023-04-20T22:12:14.045Z,8.13
2023-04-20T22:14:42.147Z,8.10
2023-04-20T22:17:11.969Z,8.08
2023-04-20T22:19:40.385Z,8.05
2023-04-20T22:22:08.483Z,8.03
2023-04-20T22:24:37.059Z,8.02
2023-04-20T22:27:05.465Z,7.99
2023-04-20T22:29:33.750Z,7.97
2023-04-20T22:32:01.866Z,7.94
2023-04-20T22:34:30.152Z,7.92
2023-04-20T22:36:58.241Z,7.90
2023-04-20T22:39:26.347Z,7.87
2023-04-20T22:41:54.530Z,7.86
2023-04-20T22:44:22.759Z,7.84
2023-04-20T22:46:51.382Z,7.82
2023-04-20T22:49:20.166Z,7.79
2023-04-20T22:51:48.430Z,7.76
2023-04-20T22:54:16.628Z,7.73
2023-04-20T22:56:44.782Z,7.71
2023-04-20T22:59:12.899Z,7.70
2023-04-20T23:01:41.051Z,7.69
2023-04-20T23:04:09.414Z,7.68
2023-04-20T23:06:37.955Z,7.67
2023-04-20T23:09:08.428Z,7.66
2023-04-20T23:11:38.976Z,7.66
2023-04-20T23:14:08.231Z,7.65
2023-04-20T23:16:36.368Z,7.63
2023-04-20T23:19:04.541Z,7.61
2023-04-20T23:21:33.030Z,7.58
2023-04-20T23:24:01.212Z,7.55
2023-04-20T23:26:29.498Z,7.51
2023-04-20T23:28:57.815Z,7.49
2023-04-20T23:31:26.268Z,7.46
2023-04-20T23:33:54.531Z,7.44
2023-04-20T23:36:22.634Z,7.41
2023-04-20T23:38:50.849Z,7.39
2023-04-20T23:41:19.066Z,7.38
2023-04-20T23:43:47.215Z,7.36
2023-04-20T23:46:15.409Z,7.33
2023-04-20T23:48:43.721Z,7.31
2023-04-20T23:51:11.951Z,7.30
2023-04-20T23:53:40.266Z,7.30
2023-04-20T23:56:08.539Z,7.28
2023-04-20T23:58:37.742Z,7.26
